Sidnaw, MI (49961)

4:03 PM EST on February 13, 2016 (GMT -0500)
MesoWest | | Change Station
CLOSE
Current Station
Personal Weather Station
Location: Kenton, MI
Elevation: 1521 ft
Nearby Weather Stations

Elev 1521 ft 46.48 °N, 88.99 °W | Updated 53 minutes ago

Partly Cloudy
Partly Cloudy
8 °F
Feels Like -1 °F
N
5
Wind Variable Wind from NW
Gusts 15.0 mph

Today
High -- | Low -- °F
--% Chance of Precip.
Yesterday
High -- | Low -- °F
Precip. -- in
Pressure 30.37 in
Visibility 10.0 miles
Clouds Mostly Cloudy 2900 ft
Windchill -1 °F
Dew Point 1 °F
Humidity 74%
Rainfall in
Snow Depth Not available.
8:02 AM 6:16 PM
Waxing Crescent, 34% visible
METAR KLNL 132055Z AUTO 33005KT 10SM BKN029 M12/M20 A3037 RMK AO2 T11201196
Pressure 30.37 in
Visibility 10.0 miles
Clouds Mostly Cloudy 2900 ft
Windchill -1 °F
Dew Point 1 °F
Humidity 74%
Rainfall in
Snow Depth Not available.
8:02 AM 6:16 PM
Waxing Crescent, 34% visible
METAR KLNL 132055Z AUTO 33005KT 10SM BKN029 M12/M20 A3037 RMK AO2 T11201196

10-Day Weather Forecast

Almanac

Astronomy

Feb. 13, 2016 Rise Set
Actual Time
Civil Twilight
Nautical Twilight
Astronomical Twilight
Moon
Length of Visible Light
Length of Day
Tomorrow will be .
, % of the Moon is Illuminated

Today's Extremes

State Highs State Lows

Community

WunderPhotos

Upload Photos

1,892,667 photos uploaded!

WunderBlog® & News

Nearby

Air Quality

  Air Quality AQ Index Pollutant
Not available.

Snow Depth

Station Depth Elevation

Earthquake Activity

City Distance Mag. Time & Date
Minimum magnitude displayed is 2.5.

Coastal Water Temperatures

Place Temperature

Stations

Nearby Weather Stations

Station Location Temp. Windchill Dew Point Humidity Wind Precip. Elev Updated Type
                   

Watches & Warnings

There are currently no watches in effect.